createdAt,value
2018-08-30T00:00:34.973Z,21.30
2018-08-30T00:03:04.348Z,21.20
2018-08-30T00:05:33.725Z,21.10
2018-08-30T00:08:03.494Z,21.20
2018-08-30T00:10:33.071Z,21.10
2018-08-30T00:13:02.415Z,21.00
2018-08-30T00:15:31.742Z,20.90
2018-08-30T00:18:01.058Z,20.80
2018-08-30T00:20:30.459Z,20.90
2018-08-30T00:22:59.802Z,20.80
2018-08-30T00:25:29.142Z,20.60
2018-08-30T00:27:58.488Z,20.60
2018-08-30T00:30:27.809Z,20.60
2018-08-30T00:32:57.131Z,20.50
2018-08-30T00:35:26.416Z,20.50
2018-08-30T00:37:55.787Z,20.30
2018-08-30T00:40:25.074Z,20.30
2018-08-30T00:42:54.460Z,20.30
2018-08-30T00:45:23.790Z,20.10
2018-08-30T00:47:53.444Z,20.00
2018-08-30T00:50:22.772Z,19.80
2018-08-30T00:52:52.059Z,19.80
2018-08-30T00:55:21.457Z,19.50
2018-08-30T00:57:50.759Z,19.10
2018-08-30T01:00:20.050Z,18.80
2018-08-30T01:02:49.488Z,18.60
2018-08-30T01:05:18.839Z,18.50
2018-08-30T01:07:48.147Z,18.40
2018-08-30T01:10:17.480Z,18.40
2018-08-30T01:12:52.132Z,18.30
2018-08-30T01:15:22.012Z,18.30
2018-08-30T01:17:51.307Z,18.20
2018-08-30T01:20:20.969Z,18.30
2018-08-30T01:22:50.250Z,18.30
2018-08-30T01:25:19.620Z,18.30
2018-08-30T01:27:49.206Z,18.20
2018-08-30T01:30:18.736Z,18.10
2018-08-30T01:32:48.078Z,18.10
2018-08-30T01:35:17.418Z,18.10
2018-08-30T01:37:46.745Z,18.20
2018-08-30T01:40:16.083Z,18.20
2018-08-30T01:42:45.411Z,18.20
2018-08-30T01:45:14.822Z,18.20
2018-08-30T01:47:44.127Z,18.20
2018-08-30T01:50:13.443Z,18.20
2018-08-30T01:52:42.766Z,18.20
2018-08-30T01:55:12.088Z,18.40
2018-08-30T01:57:41.429Z,18.30
2018-08-30T02:00:10.740Z,18.30
2018-08-30T02:02:40.120Z,18.20
2018-08-30T02:05:09.462Z,18.20
2018-08-30T02:07:38.799Z,18.20
2018-08-30T02:10:08.114Z,18.20
2018-08-30T02:12:37.439Z,18.20
2018-08-30T02:15:06.875Z,18.20
2018-08-30T02:17:36.229Z,18.20
2018-08-30T02:20:05.901Z,18.20
2018-08-30T02:22:35.262Z,18.30
2018-08-30T02:25:04.590Z,18.20
2018-08-30T02:27:33.920Z,18.20
2018-08-30T02:30:03.266Z,18.20
2018-08-30T02:32:32.614Z,18.20
2018-08-30T02:35:01.929Z,18.10
2018-08-30T02:37:31.300Z,18.10
2018-08-30T02:40:00.645Z,18.10
2018-08-30T02:42:30.002Z,18.00
2018-08-30T02:44:59.320Z,17.80
2018-08-30T02:47:29.053Z,17.70
2018-08-30T02:49:58.348Z,17.70
2018-08-30T02:52:27.670Z,17.50
2018-08-30T02:54:57.014Z,17.40
2018-08-30T02:57:26.315Z,17.50
2018-08-30T02:59:55.656Z,17.40
2018-08-30T03:02:24.972Z,17.40
2018-08-30T03:04:54.319Z,17.30
2018-08-30T03:07:23.638Z,17.30
2018-08-30T03:09:52.973Z,17.30
2018-08-30T03:12:22.260Z,17.10
2018-08-30T03:15:02.747Z,17.20
2018-08-30T03:17:32.148Z,17.20
2018-08-30T03:20:01.487Z,17.20
2018-08-30T03:22:30.882Z,17.20
2018-08-30T03:25:00.742Z,17.10
2018-08-30T03:27:30.270Z,17.10
2018-08-30T03:29:59.958Z,17.10
2018-08-30T03:32:29.252Z,17.10
2018-08-30T03:34:59.036Z,17.00
2018-08-30T03:37:28.334Z,17.10
2018-08-30T03:39:57.781Z,17.10
2018-08-30T03:42:27.037Z,17.10
2018-08-30T03:44:56.344Z,17.10
2018-08-30T03:47:25.645Z,17.00
2018-08-30T03:49:54.964Z,17.00
2018-08-30T03:52:24.270Z,17.10
2018-08-30T03:54:53.633Z,17.00
2018-08-30T03:57:23.340Z,17.10
2018-08-30T03:59:52.677Z,17.10
2018-08-30T04:02:22.027Z,17.10
2018-08-30T04:04:51.367Z,17.10
2018-08-30T04:07:20.676Z,17.10
2018-08-30T04:09:50.050Z,17.00
2018-08-30T04:12:19.350Z,17.00
2018-08-30T04:14:48.675Z,17.00
2018-08-30T04:17:17.974Z,16.90
2018-08-30T04:19:47.266Z,16.80
2018-08-30T04:22:16.614Z,16.80
2018-08-30T04:24:45.895Z,16.80
2018-08-30T04:27:15.254Z,16.80
2018-08-30T04:29:44.539Z,16.70
2018-08-30T04:32:13.871Z,16.60
2018-08-30T04:34:43.547Z,16.60
2018-08-30T04:37:12.905Z,16.60
2018-08-30T04:39:42.206Z,16.60
2018-08-30T04:42:11.553Z,16.50
2018-08-30T04:44:40.867Z,16.50
2018-08-30T04:47:10.199Z,16.50
2018-08-30T04:49:39.505Z,16.50
2018-08-30T04:52:08.929Z,16.50
2018-08-30T04:54:38.258Z,16.50
2018-08-30T04:57:07.605Z,16.50
2018-08-30T04:59:36.902Z,16.50
2018-08-30T05:02:06.283Z,16.50
2018-08-30T05:04:35.635Z,16.50
2018-08-30T05:07:04.994Z,16.60
2018-08-30T05:09:34.294Z,16.60
2018-08-30T05:12:03.633Z,16.60
2018-08-30T05:14:32.926Z,16.70
2018-08-30T05:17:02.255Z,16.80
2018-08-30T05:19:31.620Z,16.90
2018-08-30T05:22:00.953Z,16.90
2018-08-30T05:24:30.299Z,17.00
2018-08-30T05:26:59.648Z,17.00
2018-08-30T05:29:29.416Z,17.00
2018-08-30T05:31:58.734Z,16.90
2018-08-30T05:34:28.073Z,16.90
2018-08-30T05:36:57.716Z,17.00
2018-08-30T05:39:27.021Z,17.20
2018-08-30T05:41:56.338Z,17.00
2018-08-30T05:44:25.675Z,17.10
2018-08-30T05:46:54.999Z,16.90
2018-08-30T05:49:24.339Z,17.00
2018-08-30T05:51:53.646Z,16.90
2018-08-30T05:54:23.026Z,16.90
2018-08-30T05:56:52.394Z,16.80
2018-08-30T05:59:21.861Z,16.80
2018-08-30T06:01:51.182Z,16.70
2018-08-30T06:04:20.532Z,16.60
2018-08-30T06:06:50.348Z,16.70
2018-08-30T06:09:19.680Z,16.70
2018-08-30T06:11:49.006Z,16.80
2018-08-30T06:14:18.282Z,16.80
2018-08-30T06:16:47.591Z,16.90
2018-08-30T06:19:16.910Z,16.80
2018-08-30T06:21:46.233Z,16.80
2018-08-30T06:24:15.882Z,16.80
2018-08-30T06:26:45.264Z,16.80
2018-08-30T06:29:14.973Z,16.80
2018-08-30T06:31:44.279Z,17.10
2018-08-30T06:34:13.582Z,17.30
2018-08-30T06:36:42.965Z,17.30
2018-08-30T06:39:12.261Z,17.30
2018-08-30T06:41:41.618Z,17.30
2018-08-30T06:44:11.232Z,17.30
2018-08-30T06:46:40.599Z,17.40
2018-08-30T06:49:09.906Z,17.50
2018-08-30T06:51:39.235Z,17.60
2018-08-30T06:54:08.576Z,17.50
2018-08-30T06:56:38.281Z,17.40
2018-08-30T06:59:07.598Z,17.50
2018-08-30T07:01:37.173Z,17.50
2018-08-30T07:04:07.265Z,17.60
2018-08-30T07:06:36.623Z,17.50
2018-08-30T07:09:08.523Z,17.50
2018-08-30T07:11:37.862Z,17.60
2018-08-30T07:14:08.195Z,17.50
2018-08-30T07:16:37.548Z,17.60
2018-08-30T07:19:06.867Z,17.60
2018-08-30T07:21:36.567Z,17.70
2018-08-30T07:24:06.100Z,17.70
2018-08-30T07:26:35.410Z,17.70
2018-08-30T07:29:04.735Z,17.70
2018-08-30T07:31:34.041Z,18.00
2018-08-30T07:34:03.452Z,18.20
2018-08-30T07:36:32.790Z,18.30
2018-08-30T07:39:02.121Z,18.40
2018-08-30T07:41:31.445Z,18.80
2018-08-30T07:44:00.876Z,18.80
2018-08-30T07:46:30.187Z,18.50
2018-08-30T07:48:59.560Z,18.10
2018-08-30T07:51:28.870Z,18.00
2018-08-30T07:53:58.206Z,17.90
2018-08-30T07:56:28.366Z,17.80
2018-08-30T07:58:57.692Z,17.70
2018-08-30T08:01:26.998Z,17.90
2018-08-30T08:03:56.347Z,17.80
2018-08-30T08:06:25.925Z,17.70
2018-08-30T08:08:55.236Z,17.60
2018-08-30T08:11:24.601Z,17.60
2018-08-30T08:13:54.246Z,17.40
2018-08-30T08:16:23.547Z,17.60
2018-08-30T08:18:52.967Z,17.70
2018-08-30T08:21:22.287Z,17.50
2018-08-30T08:23:51.650Z,17.40
2018-08-30T08:26:20.983Z,17.50
2018-08-30T08:28:50.475Z,17.60
2018-08-30T08:31:19.851Z,17.70
2018-08-30T08:33:49.135Z,17.50
2018-08-30T08:36:18.495Z,17.50
2018-08-30T08:38:47.916Z,17.60
2018-08-30T08:41:17.254Z,17.60
2018-08-30T08:43:46.553Z,17.60
2018-08-30T08:46:15.898Z,17.70
2018-08-30T08:48:45.190Z,17.70
2018-08-30T08:51:14.559Z,17.90
2018-08-30T08:53:43.885Z,17.90
2018-08-30T08:56:14.442Z,17.80
2018-08-30T08:58:43.740Z,17.80
2018-08-30T09:01:13.120Z,17.90
2018-08-30T09:03:42.414Z,18.00
2018-08-30T09:06:11.777Z,18.40
2018-08-30T09:08:41.104Z,18.60
2018-08-30T09:11:10.510Z,18.70
2018-08-30T09:13:39.966Z,18.80
2018-08-30T09:16:09.262Z,18.80
2018-08-30T09:18:38.560Z,18.80
2018-08-30T09:21:07.891Z,19.00
2018-08-30T09:23:37.194Z,18.80
2018-08-30T09:26:06.593Z,18.30
2018-08-30T09:28:35.894Z,18.30
2018-08-30T09:31:05.570Z,18.30
2018-08-30T09:33:34.859Z,18.20
2018-08-30T09:36:04.212Z,18.30
2018-08-30T09:38:33.976Z,18.20
2018-08-30T09:41:03.378Z,18.20
2018-08-30T09:43:32.716Z,18.30
2018-08-30T09:46:02.042Z,18.30
2018-08-30T09:48:31.369Z,18.10
2018-08-30T09:51:00.685Z,18.30
2018-08-30T09:53:30.110Z,18.10
2018-08-30T09:55:59.507Z,18.00
2018-08-30T09:58:28.863Z,18.30
2018-08-30T10:01:03.380Z,18.40
2018-08-30T10:03:32.731Z,19.10
2018-08-30T10:06:02.459Z,20.80
2018-08-30T10:08:31.822Z,22.30
2018-08-30T10:11:01.129Z,23.30
2018-08-30T10:13:30.491Z,25.10
2018-08-30T10:16:00.151Z,25.20
2018-08-30T10:18:29.831Z,24.10
2018-08-30T10:20:59.196Z,22.80
2018-08-30T10:23:28.558Z,21.70
2018-08-30T10:25:57.875Z,20.90
2018-08-30T10:28:27.195Z,20.00
2018-08-30T10:30:56.483Z,20.00
2018-08-30T10:33:25.810Z,20.10
2018-08-30T10:35:55.085Z,20.20
2018-08-30T10:38:24.399Z,20.20
2018-08-30T10:40:53.694Z,20.00
2018-08-30T10:43:23.026Z,19.70
2018-08-30T10:45:52.356Z,19.70
2018-08-30T10:48:21.689Z,19.70
2018-08-30T10:50:50.994Z,19.70
2018-08-30T10:53:20.390Z,20.00
2018-08-30T10:55:49.725Z,21.30
2018-08-30T10:58:19.058Z,22.50
2018-08-30T11:00:48.420Z,22.50
2018-08-30T11:03:17.826Z,21.70
2018-08-30T11:05:47.126Z,21.50
2018-08-30T11:08:16.412Z,20.90
2018-08-30T11:10:46.651Z,20.70
2018-08-30T11:13:16.019Z,20.50
2018-08-30T11:15:45.339Z,19.90
2018-08-30T11:18:14.626Z,19.60
2018-08-30T11:20:43.958Z,19.70
2018-08-30T11:23:13.257Z,19.50
2018-08-30T11:25:42.867Z,19.50
2018-08-30T11:28:12.139Z,19.50
2018-08-30T11:30:41.850Z,19.00
2018-08-30T11:33:11.429Z,18.80
2018-08-30T11:35:40.805Z,19.10
2018-08-30T11:38:10.597Z,19.20
2018-08-30T11:40:39.919Z,19.30
2018-08-30T11:43:09.265Z,19.10
2018-08-30T11:45:38.791Z,19.40
2018-08-30T11:48:08.162Z,19.40
2018-08-30T11:50:37.516Z,19.60
2018-08-30T11:53:06.818Z,19.80
2018-08-30T11:55:36.425Z,20.00
2018-08-30T11:58:05.770Z,19.80
2018-08-30T12:00:35.226Z,19.50
2018-08-30T12:03:04.571Z,19.30
2018-08-30T12:05:33.944Z,19.20
2018-08-30T12:08:03.664Z,19.20
2018-08-30T12:10:33.200Z,19.30
2018-08-30T12:13:02.923Z,19.00
2018-08-30T12:15:32.726Z,19.20
2018-08-30T12:18:02.629Z,19.20
2018-08-30T12:20:32.039Z,19.20
2018-08-30T12:23:01.359Z,19.40
2018-08-30T12:25:30.771Z,19.60
2018-08-30T12:28:00.106Z,19.90
2018-08-30T12:30:29.513Z,20.30
2018-08-30T12:32:58.927Z,21.10
2018-08-30T12:35:28.311Z,21.70
2018-08-30T12:37:57.692Z,21.60
2018-08-30T12:40:27.063Z,22.30
2018-08-30T12:42:56.424Z,23.10
2018-08-30T12:45:25.746Z,24.10
2018-08-30T12:47:55.149Z,24.60
2018-08-30T12:50:24.514Z,24.30
2018-08-30T12:52:53.863Z,23.00
2018-08-30T12:55:23.343Z,22.50
2018-08-30T12:57:52.999Z,22.40
2018-08-30T13:00:22.535Z,22.40
2018-08-30T13:02:51.935Z,22.70
2018-08-30T13:05:21.346Z,23.00
2018-08-30T13:07:50.682Z,22.90
2018-08-30T13:10:20.122Z,22.40
2018-08-30T13:12:49.403Z,22.80
2018-08-30T13:15:18.774Z,23.10
2018-08-30T13:17:48.084Z,23.40
2018-08-30T13:20:17.453Z,23.60
2018-08-30T13:22:46.914Z,24.00
2018-08-30T13:25:16.261Z,24.00
2018-08-30T13:27:45.669Z,23.40
2018-08-30T13:30:15.128Z,22.70
2018-08-30T13:32:44.412Z,22.10
2018-08-30T13:35:13.866Z,21.90
2018-08-30T13:37:44.310Z,21.80
2018-08-30T13:40:13.805Z,21.80
2018-08-30T13:42:43.771Z,21.80
2018-08-30T13:45:16.023Z,22.10
2018-08-30T13:47:45.659Z,22.00
2018-08-30T13:50:14.877Z,21.90
2018-08-30T13:52:44.211Z,21.90
2018-08-30T13:55:13.728Z,22.00
2018-08-30T13:57:43.633Z,22.20
2018-08-30T14:00:12.646Z,22.20
2018-08-30T14:02:41.936Z,22.20
2018-08-30T14:05:11.344Z,22.40
2018-08-30T14:07:41.347Z,22.70
2018-08-30T14:10:10.685Z,22.60
2018-08-30T14:12:40.191Z,22.50
2018-08-30T14:15:09.835Z,22.30
2018-08-30T14:17:38.654Z,21.90
2018-08-30T14:20:08.049Z,21.70
2018-08-30T14:22:37.482Z,21.50
2018-08-30T14:25:07.111Z,21.40
2018-08-30T14:27:36.472Z,21.70
2018-08-30T14:30:05.843Z,21.70
2018-08-30T14:32:35.205Z,21.60
2018-08-30T14:35:04.598Z,21.20
2018-08-30T14:37:33.929Z,21.40
2018-08-30T14:40:03.256Z,21.60
2018-08-30T14:42:32.610Z,21.30
2018-08-30T14:45:02.078Z,21.20
2018-08-30T14:47:31.355Z,21.20
2018-08-30T14:50:00.667Z,21.20
2018-08-30T14:52:29.986Z,21.20
2018-08-30T14:54:59.506Z,21.10
2018-08-30T14:57:28.698Z,21.40
2018-08-30T14:59:58.035Z,21.50
2018-08-30T15:02:27.762Z,21.80
2018-08-30T15:04:57.095Z,21.80
2018-08-30T15:07:27.020Z,21.60
2018-08-30T15:09:56.337Z,21.60
2018-08-30T15:12:25.765Z,21.70
2018-08-30T15:14:55.018Z,21.70
2018-08-30T15:17:24.353Z,21.70
2018-08-30T15:19:58.945Z,21.80
2018-08-30T15:22:28.258Z,21.70
2018-08-30T15:24:57.903Z,21.40
2018-08-30T15:27:27.252Z,21.40
2018-08-30T15:29:56.589Z,21.20
2018-08-30T15:32:25.958Z,21.30
2018-08-30T15:34:55.691Z,21.60
2018-08-30T15:37:25.014Z,21.70
2018-08-30T15:39:54.307Z,21.60
2018-08-30T15:42:23.680Z,21.60
2018-08-30T15:44:52.984Z,21.60
2018-08-30T15:47:22.385Z,21.50
2018-08-30T15:49:51.659Z,21.30
2018-08-30T15:52:26.351Z,21.30
2018-08-30T15:54:55.690Z,21.20
2018-08-30T15:57:25.155Z,21.10
2018-08-30T15:59:54.436Z,21.10
2018-08-30T16:02:23.809Z,21.00
2018-08-30T16:04:53.284Z,21.00
2018-08-30T16:07:22.664Z,21.00
2018-08-30T16:09:52.342Z,20.90
2018-08-30T16:12:22.224Z,20.90
2018-08-30T16:14:51.591Z,20.80
2018-08-30T16:17:21.083Z,20.80
2018-08-30T16:19:50.318Z,20.80
2018-08-30T16:22:19.803Z,20.90
2018-08-30T16:24:49.134Z,20.80
2018-08-30T16:27:18.540Z,20.80
2018-08-30T16:29:47.936Z,20.80
2018-08-30T16:32:17.274Z,20.70
2018-08-30T16:34:47.097Z,20.40
2018-08-30T16:37:17.377Z,20.60
2018-08-30T16:39:46.739Z,20.60
2018-08-30T16:42:16.062Z,20.60
2018-08-30T16:44:45.409Z,20.60
2018-08-30T16:47:14.822Z,20.70
2018-08-30T16:49:44.171Z,20.60
2018-08-30T16:52:13.650Z,20.60
2018-08-30T16:54:43.026Z,20.60
2018-08-30T16:57:12.738Z,20.40
2018-08-30T16:59:42.086Z,20.20
2018-08-30T17:02:11.456Z,20.10
2018-08-30T17:04:40.851Z,20.10
2018-08-30T17:07:10.269Z,20.20
2018-08-30T17:09:39.593Z,20.30
2018-08-30T17:12:08.960Z,20.20
2018-08-30T17:14:38.362Z,20.00
2018-08-30T17:17:07.817Z,19.90
2018-08-30T17:19:37.086Z,19.70
2018-08-30T17:22:06.384Z,19.60
2018-08-30T17:24:35.810Z,19.50
2018-08-30T17:27:05.132Z,19.70
2018-08-30T17:29:34.649Z,19.50
2018-08-30T17:32:04.051Z,19.50
2018-08-30T17:34:33.371Z,19.60
2018-08-30T17:37:02.950Z,19.60
2018-08-30T17:39:33.536Z,19.60
2018-08-30T17:42:02.863Z,19.40
2018-08-30T17:44:32.181Z,19.20
2018-08-30T17:47:01.674Z,19.00
2018-08-30T17:49:31.078Z,18.90
2018-08-30T17:52:00.515Z,18.90
2018-08-30T17:54:29.983Z,18.80
2018-08-30T17:56:59.647Z,18.70
2018-08-30T17:59:29.323Z,18.70
2018-08-30T18:01:59.118Z,18.70
2018-08-30T18:04:28.866Z,18.60
2018-08-30T18:06:58.300Z,18.50
2018-08-30T18:09:27.584Z,18.40
2018-08-30T18:11:56.957Z,18.10
2018-08-30T18:14:26.620Z,17.90
2018-08-30T18:16:56.155Z,17.90
2018-08-30T18:19:25.462Z,17.80
2018-08-30T18:21:54.799Z,17.80
2018-08-30T18:24:24.162Z,17.80
2018-08-30T18:26:53.493Z,17.90
2018-08-30T18:29:22.819Z,17.90
2018-08-30T18:31:52.142Z,17.70
2018-08-30T18:34:21.487Z,17.70
2018-08-30T18:36:50.875Z,17.70
2018-08-30T18:39:20.215Z,17.60
2018-08-30T18:41:49.542Z,17.40
2018-08-30T18:44:18.888Z,17.40
2018-08-30T18:46:48.174Z,17.30
2018-08-30T18:49:17.609Z,17.20
2018-08-30T18:51:46.937Z,17.30
2018-08-30T18:54:16.294Z,17.30
2018-08-30T18:56:45.630Z,17.10
2018-08-30T18:59:14.993Z,17.10
2018-08-30T19:01:44.345Z,17.10
2018-08-30T19:04:13.718Z,17.00
2018-08-30T19:06:43.034Z,17.00
2018-08-30T19:09:12.879Z,17.00
2018-08-30T19:11:42.759Z,16.90
2018-08-30T19:14:12.140Z,16.80
2018-08-30T19:16:46.779Z,16.80
2018-08-30T19:19:19.431Z,16.60
2018-08-30T19:21:48.776Z,16.50
2018-08-30T19:24:23.471Z,16.60
2018-08-30T19:26:52.835Z,16.70
2018-08-30T19:29:22.183Z,16.50
2018-08-30T19:31:51.569Z,16.40
2018-08-30T19:34:20.905Z,16.40
2018-08-30T19:36:50.328Z,16.40
2018-08-30T19:39:19.983Z,16.30
2018-08-30T19:41:49.397Z,16.20
2018-08-30T19:44:18.755Z,16.10
2018-08-30T19:46:48.090Z,16.30
2018-08-30T19:49:17.400Z,16.40
2018-08-30T19:51:46.759Z,16.30
2018-08-30T19:54:16.192Z,16.20
2018-08-30T19:56:45.558Z,16.20
2018-08-30T19:59:14.896Z,16.30
2018-08-30T20:01:44.278Z,16.20
2018-08-30T20:04:13.583Z,16.10
2018-08-30T20:06:42.974Z,16.10
2018-08-30T20:09:12.366Z,16.10
2018-08-30T20:11:41.735Z,16.10
2018-08-30T20:14:11.157Z,16.10
2018-08-30T20:16:40.519Z,16.00
2018-08-30T20:19:10.215Z,15.90
2018-08-30T20:21:39.592Z,15.50
2018-08-30T20:24:08.888Z,15.50
2018-08-30T20:26:38.266Z,15.30
2018-08-30T20:29:07.564Z,15.40
2018-08-30T20:31:36.930Z,15.40
2018-08-30T20:34:06.235Z,15.50
2018-08-30T20:36:35.655Z,15.50
2018-08-30T20:39:06.028Z,15.40
2018-08-30T20:41:35.411Z,15.60
2018-08-30T20:44:04.743Z,15.60
2018-08-30T20:46:34.201Z,15.70
2018-08-30T20:49:03.514Z,15.60
2018-08-30T20:51:32.866Z,15.50
2018-08-30T20:54:02.172Z,15.50
2018-08-30T20:56:31.623Z,15.50
2018-08-30T20:59:01.391Z,15.50
2018-08-30T21:01:30.747Z,15.20
2018-08-30T21:04:00.071Z,15.00
2018-08-30T21:06:29.973Z,15.00
2018-08-30T21:08:59.287Z,15.10
2018-08-30T21:11:28.625Z,15.00
2018-08-30T21:13:57.962Z,15.10
2018-08-30T21:16:27.306Z,15.20
2018-08-30T21:18:57.081Z,15.30
2018-08-30T21:21:26.402Z,15.20
2018-08-30T21:23:55.814Z,15.20
2018-08-30T21:26:25.590Z,15.20
2018-08-30T21:28:54.956Z,15.30
2018-08-30T21:31:24.295Z,15.30
2018-08-30T21:33:53.658Z,15.30
2018-08-30T21:36:22.986Z,15.40
2018-08-30T21:38:52.436Z,15.50
2018-08-30T21:41:21.758Z,15.40
2018-08-30T21:43:51.127Z,15.30
2018-08-30T21:46:20.531Z,15.40
2018-08-30T21:48:50.019Z,15.40
2018-08-30T21:51:19.455Z,15.30
2018-08-30T21:53:48.851Z,15.40
2018-08-30T21:56:18.271Z,15.40
2018-08-30T21:58:47.797Z,15.30
2018-08-30T22:01:17.131Z,15.30
2018-08-30T22:03:47.458Z,15.30
2018-08-30T22:06:17.382Z,15.30
2018-08-30T22:08:46.794Z,15.20
2018-08-30T22:11:16.135Z,14.90
2018-08-30T22:13:45.547Z,14.80
2018-08-30T22:16:14.880Z,14.80
2018-08-30T22:18:44.271Z,14.90
2018-08-30T22:21:13.570Z,14.60
2018-08-30T22:23:42.881Z,14.40
2018-08-30T22:26:12.644Z,14.10
2018-08-30T22:28:42.298Z,14.20
2018-08-30T22:31:11.666Z,14.20
2018-08-30T22:33:40.980Z,14.20
2018-08-30T22:36:10.339Z,14.20
2018-08-30T22:38:39.730Z,14.20
2018-08-30T22:41:09.146Z,14.40
2018-08-30T22:43:38.456Z,14.30
2018-08-30T22:46:07.862Z,14.30
2018-08-30T22:48:38.157Z,14.40
2018-08-30T22:51:08.692Z,14.60
2018-08-30T22:53:39.906Z,14.60
2018-08-30T22:56:09.680Z,14.50
2018-08-30T22:58:38.978Z,14.50
2018-08-30T23:01:08.350Z,14.30
2018-08-30T23:03:37.691Z,14.30
2018-08-30T23:06:07.093Z,14.30
2018-08-30T23:08:36.414Z,14.50
2018-08-30T23:11:05.759Z,14.50
2018-08-30T23:13:35.091Z,14.50
2018-08-30T23:16:04.446Z,14.50
2018-08-30T23:18:33.795Z,14.60
2018-08-30T23:21:03.177Z,14.50
2018-08-30T23:23:32.491Z,14.10
2018-08-30T23:26:01.832Z,14.00
2018-08-30T23:28:31.182Z,14.00
2018-08-30T23:31:00.539Z,14.20
2018-08-30T23:33:29.859Z,14.10
2018-08-30T23:35:59.194Z,14.00
2018-08-30T23:38:28.567Z,14.00
2018-08-30T23:40:57.886Z,14.00
2018-08-30T23:43:27.295Z,14.10
2018-08-30T23:45:56.598Z,14.10
2018-08-30T23:48:25.931Z,14.10
2018-08-30T23:50:55.638Z,14.20
2018-08-30T23:53:25.463Z,13.90
2018-08-30T23:55:55.155Z,13.90
2018-08-30T23:58:35.542Z,14.00
